createdAt,value
2023-05-15T00:01:51.636Z,16
2023-05-15T00:04:22.450Z,20
2023-05-15T00:06:53.526Z,19
2023-05-15T00:09:23.984Z,16
2023-05-15T00:11:54.818Z,16
2023-05-15T00:14:25.895Z,17
2023-05-15T00:16:56.871Z,16
2023-05-15T00:19:28.189Z,19
2023-05-15T00:21:58.933Z,20
2023-05-15T00:24:29.762Z,16
2023-05-15T00:27:01.047Z,16
2023-05-15T00:29:32.963Z,20
2023-05-15T00:32:03.696Z,18
2023-05-15T00:34:34.504Z,15
2023-05-15T00:37:05.582Z,16
2023-05-15T00:39:36.774Z,16
2023-05-15T00:42:07.211Z,16
2023-05-15T00:44:38.137Z,16
2023-05-15T00:47:08.994Z,16
2023-05-15T00:49:40.386Z,16
2023-05-15T00:52:11.694Z,16
2023-05-15T00:54:42.083Z,20
2023-05-15T00:57:12.864Z,16
2023-05-15T00:59:43.471Z,16
2023-05-15T01:02:14.458Z,16
2023-05-15T01:04:45.344Z,16
2023-05-15T01:07:16.450Z,20
2023-05-15T01:09:50.496Z,19
2023-05-15T01:12:21.492Z,20
2023-05-15T01:14:52.581Z,16
2023-05-15T01:17:23.689Z,17
2023-05-15T01:19:54.829Z,16
2023-05-15T01:22:26.180Z,17
2023-05-15T01:24:56.907Z,16
2023-05-15T01:27:28.634Z,16
2023-05-15T01:29:59.479Z,17
2023-05-15T01:32:31.021Z,16
2023-05-15T01:35:01.679Z,16
2023-05-15T01:37:33.110Z,17
2023-05-15T01:40:03.733Z,16
2023-05-15T01:42:35.310Z,12
2023-05-15T01:45:06.627Z,16
2023-05-15T01:47:37.572Z,16
2023-05-15T01:50:08.657Z,16
2023-05-15T01:52:40.204Z,18
2023-05-15T01:55:10.942Z,16
2023-05-15T01:57:42.056Z,16
2023-05-15T02:00:12.859Z,16
2023-05-15T02:02:44.151Z,16
2023-05-15T02:05:15.831Z,12
2023-05-15T02:07:46.736Z,16
2023-05-15T02:10:17.736Z,16
2023-05-15T02:12:48.681Z,12
2023-05-15T02:15:19.748Z,16
2023-05-15T02:17:50.576Z,15
2023-05-15T02:20:21.530Z,16
2023-05-15T02:22:52.670Z,16
2023-05-15T02:25:24.417Z,16
2023-05-15T02:27:55.003Z,16
2023-05-15T02:30:26.491Z,15
2023-05-15T02:32:57.409Z,13
2023-05-15T02:35:28.096Z,16
2023-05-15T02:38:00.498Z,16
2023-05-15T02:40:31.644Z,12
2023-05-15T02:43:02.555Z,16
2023-05-15T02:45:33.766Z,16
2023-05-15T02:48:04.904Z,16
2023-05-15T02:50:35.702Z,12
2023-05-15T02:53:07.121Z,12
2023-05-15T02:55:37.983Z,12
2023-05-15T02:58:09.061Z,16
2023-05-15T03:00:40.066Z,16
2023-05-15T03:03:11.217Z,16
2023-05-15T03:05:42.325Z,16
2023-05-15T03:08:13.257Z,12
2023-05-15T03:10:44.735Z,14
2023-05-15T03:13:15.892Z,16
2023-05-15T03:15:47.079Z,12
2023-05-15T03:18:18.792Z,12
2023-05-15T03:20:48.804Z,16
2023-05-15T03:23:19.705Z,15
2023-05-15T03:25:51.036Z,16
2023-05-15T03:28:21.969Z,15
2023-05-15T03:30:53.284Z,14
2023-05-15T03:33:24.091Z,12
2023-05-15T03:35:55.024Z,15
2023-05-15T03:38:25.856Z,12
2023-05-15T03:40:56.596Z,16
2023-05-15T03:43:27.512Z,12
2023-05-15T03:45:58.420Z,16
2023-05-15T03:48:29.357Z,16
2023-05-15T03:51:00.405Z,16
2023-05-15T03:53:31.466Z,17
2023-05-15T03:56:01.935Z,16
2023-05-15T03:58:32.909Z,16
2023-05-15T04:01:03.937Z,15
2023-05-15T04:03:34.792Z,16
2023-05-15T04:06:05.542Z,16
2023-05-15T04:08:37.276Z,16
2023-05-15T04:11:07.859Z,16
2023-05-15T04:13:39.073Z,16
2023-05-15T04:16:09.894Z,12
2023-05-15T04:18:41.107Z,17
2023-05-15T04:21:11.803Z,20
2023-05-15T04:23:42.413Z,16
2023-05-15T04:26:13.270Z,19
2023-05-15T04:28:49.477Z,20
2023-05-15T04:31:15.002Z,16
2023-05-15T04:33:45.831Z,16
2023-05-15T04:36:16.502Z,17
2023-05-15T04:38:47.533Z,20
2023-05-15T04:41:18.952Z,24
2023-05-15T04:43:49.497Z,17
2023-05-15T04:46:20.646Z,20
2023-05-15T04:48:51.974Z,18
2023-05-15T04:51:23.003Z,16
2023-05-15T04:53:53.713Z,19
2023-05-15T04:56:24.365Z,17
2023-05-15T04:58:55.083Z,16
2023-05-15T05:01:25.869Z,21
2023-05-15T05:03:56.747Z,22
2023-05-15T05:06:29.214Z,24
2023-05-15T05:08:58.529Z,16
2023-05-15T05:11:29.265Z,20
2023-05-15T05:13:59.902Z,18
2023-05-15T05:16:30.424Z,16
2023-05-15T05:19:01.218Z,20
2023-05-15T05:21:31.907Z,20
2023-05-15T05:24:03.283Z,20
2023-05-15T05:26:34.185Z,17
2023-05-15T05:29:05.309Z,24
2023-05-15T05:31:34.893Z,20
2023-05-15T05:34:05.738Z,19
2023-05-15T05:36:36.538Z,20
2023-05-15T05:39:07.070Z,21
2023-05-15T05:41:37.973Z,17
2023-05-15T05:44:09.735Z,20
2023-05-15T05:46:40.776Z,16
2023-05-15T05:49:11.454Z,19
2023-05-15T05:51:42.377Z,20
2023-05-15T05:54:13.550Z,19
2023-05-15T05:56:44.814Z,20
2023-05-15T05:59:16.243Z,20
2023-05-15T06:01:47.159Z,16
2023-05-15T06:04:19.289Z,16
2023-05-15T06:06:49.413Z,20
2023-05-15T06:09:20.454Z,20
2023-05-15T06:11:51.689Z,20
2023-05-15T06:14:22.527Z,20
2023-05-15T06:16:53.331Z,20
2023-05-15T06:19:24.081Z,20
2023-05-15T06:21:54.647Z,16
2023-05-15T06:24:25.369Z,24
2023-05-15T06:26:56.797Z,20
2023-05-15T06:29:29.409Z,20
2023-05-15T06:32:00.064Z,20
2023-05-15T06:34:30.798Z,20
2023-05-15T06:37:00.984Z,20
2023-05-15T06:39:31.547Z,20
2023-05-15T06:42:02.228Z,20
2023-05-15T06:44:33.332Z,20
2023-05-15T06:47:04.963Z,20
2023-05-15T06:49:35.894Z,16
2023-05-15T06:52:06.526Z,16
2023-05-15T06:54:37.237Z,20
2023-05-15T06:57:07.282Z,20
2023-05-15T06:59:37.704Z,20
2023-05-15T07:02:08.569Z,18
2023-05-15T07:04:39.872Z,16
2023-05-15T07:07:11.035Z,25
2023-05-15T07:09:42.561Z,24
2023-05-15T07:12:12.454Z,20
2023-05-15T07:14:43.438Z,20
2023-05-15T07:17:14.450Z,20
2023-05-15T07:19:45.614Z,18
2023-05-15T07:22:16.231Z,23
2023-05-15T07:24:46.762Z,19
2023-05-15T07:27:17.438Z,23
2023-05-15T07:29:48.608Z,19
2023-05-15T07:32:18.739Z,20
2023-05-15T07:34:49.527Z,20
2023-05-15T07:37:20.339Z,17
2023-05-15T07:39:50.857Z,20
2023-05-15T07:42:21.417Z,17
2023-05-15T07:44:52.161Z,20
2023-05-15T07:47:22.027Z,16
2023-05-15T07:49:53.047Z,20
2023-05-15T07:52:25.816Z,16
2023-05-15T07:54:59.053Z,16
2023-05-15T07:57:31.504Z,16
2023-05-15T08:00:03.302Z,17
2023-05-15T08:02:35.505Z,16
2023-05-15T08:05:05.896Z,20
2023-05-15T08:07:37.974Z,19
2023-05-15T08:10:08.994Z,20
2023-05-15T08:12:39.497Z,20
2023-05-15T08:15:16.167Z,16
2023-05-15T08:17:46.793Z,17
2023-05-15T08:20:17.624Z,19
2023-05-15T08:22:51.065Z,20
2023-05-15T08:25:21.490Z,20
2023-05-15T08:27:51.899Z,16
2023-05-15T08:30:22.603Z,18
2023-05-15T08:32:53.048Z,16
2023-05-15T08:35:27.682Z,18
2023-05-15T08:38:02.898Z,20
2023-05-15T08:40:39.417Z,20
2023-05-15T08:43:06.747Z,16
2023-05-15T08:45:37.602Z,16
2023-05-15T08:48:07.701Z,16
2023-05-15T08:50:41.963Z,16
2023-05-15T08:53:12.643Z,20
2023-05-15T08:55:43.363Z,20
2023-05-15T08:58:14.374Z,20
2023-05-15T09:00:50.945Z,16
2023-05-15T09:03:21.244Z,20
2023-05-15T09:05:52.914Z,20
2023-05-15T09:08:24.556Z,16
2023-05-15T09:10:54.869Z,20
2023-05-15T09:13:27.038Z,20
2023-05-15T09:15:57.799Z,20
2023-05-15T09:18:31.923Z,19
2023-05-15T09:21:03.854Z,16
2023-05-15T09:23:34.874Z,20
2023-05-15T09:26:06.296Z,20
2023-05-15T09:28:36.858Z,20
2023-05-15T09:31:07.289Z,20
2023-05-15T09:33:39.147Z,20
2023-05-15T09:36:10.151Z,20
2023-05-15T09:38:46.739Z,20
2023-05-15T09:41:15.528Z,20
2023-05-15T09:43:45.632Z,20
2023-05-15T09:46:16.497Z,20
2023-05-15T09:48:46.823Z,20
2023-05-15T09:51:17.005Z,20
2023-05-15T09:53:47.447Z,20
2023-05-15T09:56:22.294Z,22
2023-05-15T09:58:53.195Z,22
2023-05-15T10:01:23.583Z,23
2023-05-15T10:03:53.982Z,20
2023-05-15T10:06:24.077Z,20
2023-05-15T10:08:54.512Z,20
2023-05-15T10:11:25.101Z,20
2023-05-15T10:13:56.337Z,20
2023-05-15T10:16:30.468Z,20
2023-05-15T10:19:04.258Z,16
2023-05-15T10:21:33.227Z,18
2023-05-15T10:24:05.314Z,20
2023-05-15T10:26:39.128Z,20
2023-05-15T10:29:09.942Z,16
2023-05-15T10:31:44.324Z,16
2023-05-15T10:34:14.700Z,20
2023-05-15T10:36:44.070Z,16
2023-05-15T10:39:15.492Z,20
2023-05-15T10:41:53.472Z,17
2023-05-15T10:44:24.108Z,20
2023-05-15T10:46:58.007Z,20
2023-05-15T10:49:28.317Z,20
2023-05-15T10:52:04.341Z,24
2023-05-15T10:54:34.744Z,20
2023-05-15T10:57:07.235Z,19
2023-05-15T10:59:37.746Z,16
2023-05-15T11:02:17.330Z,20
2023-05-15T11:04:47.831Z,16
2023-05-15T11:07:18.454Z,16
2023-05-15T11:09:49.161Z,20
2023-05-15T11:12:20.424Z,20
2023-05-15T11:14:51.235Z,20
2023-05-15T11:17:26.418Z,18
2023-05-15T11:19:56.337Z,18
2023-05-15T11:22:26.599Z,17
2023-05-15T11:24:56.990Z,20
2023-05-15T11:27:29.897Z,20
2023-05-15T11:30:00.234Z,20
2023-05-15T11:32:32.675Z,18
2023-05-15T11:35:05.051Z,20
2023-05-15T11:37:37.836Z,20
2023-05-15T11:40:10.831Z,18
2023-05-15T11:42:41.595Z,16
2023-05-15T11:45:11.491Z,20
2023-05-15T11:47:42.125Z,16
2023-05-15T11:50:14.058Z,17
2023-05-15T11:52:45.186Z,16
2023-05-15T11:55:15.566Z,16
2023-05-15T11:57:46.051Z,16
2023-05-15T12:00:16.558Z,16
2023-05-15T12:02:50.787Z,16
2023-05-15T12:05:22.422Z,12
2023-05-15T12:07:52.994Z,16
2023-05-15T12:10:23.908Z,16
2023-05-15T12:13:00.377Z,16
2023-05-15T12:15:30.580Z,16
2023-05-15T12:18:02.840Z,16
2023-05-15T12:20:33.963Z,16
2023-05-15T12:23:04.693Z,16
2023-05-15T12:25:34.322Z,16
2023-05-15T12:28:07.534Z,16
2023-05-15T12:30:38.985Z,12
2023-05-15T12:33:10.649Z,16
2023-05-15T12:35:43.782Z,12
2023-05-15T12:38:14.168Z,12
2023-05-15T12:40:44.837Z,16
2023-05-15T12:43:16.560Z,13
2023-05-15T12:45:47.703Z,16
2023-05-15T12:48:18.257Z,16
2023-05-15T12:50:54.335Z,16
2023-05-15T12:53:24.908Z,16
2023-05-15T12:55:55.809Z,12
2023-05-15T12:58:28.606Z,16
2023-05-15T13:00:59.582Z,14
2023-05-15T13:03:32.324Z,13
2023-05-15T13:06:04.955Z,12
2023-05-15T13:08:35.700Z,16
2023-05-15T13:11:09.674Z,16
2023-05-15T13:13:40.183Z,12
2023-05-15T13:16:12.647Z,14
2023-05-15T13:18:45.764Z,14
2023-05-15T13:21:16.150Z,10
2023-05-15T13:23:47.150Z,16
2023-05-15T13:26:20.550Z,12
2023-05-15T13:28:51.861Z,15
2023-05-15T13:31:27.130Z,16
2023-05-15T13:34:01.299Z,12
2023-05-15T13:36:38.476Z,12
2023-05-15T13:39:10.899Z,12
2023-05-15T13:41:43.233Z,12
2023-05-15T13:44:16.225Z,12
2023-05-15T13:46:49.316Z,12
2023-05-15T13:49:20.148Z,15
2023-05-15T13:51:52.216Z,13
2023-05-15T13:54:24.486Z,20
2023-05-15T13:56:58.708Z,16
2023-05-15T13:59:35.072Z,18
2023-05-15T14:02:08.976Z,17
2023-05-15T14:04:44.464Z,29
2023-05-15T14:07:17.920Z,20
2023-05-15T14:09:50.530Z,13
2023-05-15T14:15:23.401Z,12
2023-05-15T14:17:58.262Z,16
2023-05-15T14:20:31.828Z,12
2023-05-15T14:23:08.809Z,12
2023-05-15T14:25:42.027Z,12
2023-05-15T14:28:15.494Z,16
2023-05-15T14:30:53.775Z,12
2023-05-15T14:33:27.845Z,12
2023-05-15T14:36:01.457Z,16
2023-05-15T14:38:33.781Z,16
2023-05-15T14:41:09.238Z,15
2023-05-15T14:43:43.147Z,16
2023-05-15T14:46:16.173Z,16
2023-05-15T14:48:50.244Z,20
2023-05-15T14:51:21.590Z,15
2023-05-15T14:53:57.139Z,16
2023-05-15T14:56:29.168Z,13
2023-05-15T14:59:01.689Z,16
2023-05-15T15:01:36.430Z,16
2023-05-15T15:04:08.211Z,20
2023-05-15T15:06:40.229Z,24
2023-05-15T15:09:12.603Z,21
2023-05-15T15:11:44.692Z,20
2023-05-15T15:14:18.264Z,20
2023-05-15T15:16:50.783Z,21
2023-05-15T15:19:28.088Z,20
2023-05-15T15:22:00.299Z,20
2023-05-15T15:24:35.644Z,20
2023-05-15T15:27:11.213Z,16
2023-05-15T15:29:46.817Z,20
2023-05-15T15:32:20.845Z,20
2023-05-15T15:34:55.166Z,28
2023-05-15T15:37:29.644Z,29
2023-05-15T15:40:09.844Z,28
2023-05-15T15:45:48.108Z,20
2023-05-15T15:48:21.163Z,20
2023-05-15T15:50:53.124Z,20
2023-05-15T15:53:23.140Z,20
2023-05-15T15:55:55.205Z,20
2023-05-15T15:58:28.491Z,20
2023-05-15T16:01:03.424Z,20
2023-05-15T16:03:35.452Z,20
2023-05-15T16:06:07.464Z,20
2023-05-15T16:08:39.426Z,20
2023-05-15T16:11:12.004Z,20
2023-05-15T16:13:45.400Z,24
2023-05-15T16:16:17.500Z,24
2023-05-15T16:18:49.483Z,24
2023-05-15T16:21:21.510Z,24
2023-05-15T16:23:53.764Z,24
2023-05-15T16:26:25.620Z,28
2023-05-15T16:28:58.590Z,28
2023-05-15T16:31:31.792Z,27
2023-05-15T16:34:04.890Z,28
2023-05-15T16:36:38.079Z,28
2023-05-15T16:39:11.067Z,28
2023-05-15T16:41:43.564Z,28
2023-05-15T16:44:16.137Z,28
2023-05-15T16:46:51.699Z,28
2023-05-15T16:49:21.987Z,28
2023-05-15T16:51:55.686Z,24
2023-05-15T16:54:27.654Z,24
2023-05-15T16:57:00.944Z,24
2023-05-15T16:59:30.692Z,32
2023-05-15T17:02:00.740Z,28
2023-05-15T17:04:35.650Z,26
2023-05-15T17:07:09.090Z,28
2023-05-15T17:09:40.502Z,28
2023-05-15T17:12:11.245Z,28
2023-05-15T17:14:42.000Z,28
2023-05-15T17:17:13.247Z,28
2023-05-15T17:19:44.702Z,28
2023-05-15T17:22:16.110Z,28
2023-05-15T17:24:51.147Z,28
2023-05-15T17:27:18.653Z,24
2023-05-15T17:29:48.784Z,24
2023-05-15T17:32:20.727Z,24
2023-05-15T17:34:51.204Z,28
2023-05-15T17:37:22.116Z,24
2023-05-15T17:39:55.135Z,26
2023-05-15T17:42:27.407Z,24
2023-05-15T17:47:48.528Z,28
2023-05-15T17:50:18.612Z,24
2023-05-15T17:55:38.146Z,26
2023-05-15T17:58:16.635Z,28
2023-05-15T18:00:48.886Z,24
2023-05-15T18:03:22.865Z,28
2023-05-15T18:05:57.745Z,27
2023-05-15T18:08:27.363Z,25
2023-05-15T18:11:14.200Z,24
2023-05-15T18:13:37.841Z,28
2023-05-15T18:16:08.617Z,28
2023-05-15T18:18:40.097Z,28
2023-05-15T18:21:10.175Z,29
2023-05-15T18:23:45.795Z,28
2023-05-15T18:26:15.438Z,28
2023-05-15T18:28:46.747Z,24
2023-05-15T18:31:20.922Z,24
2023-05-15T18:33:52.053Z,24
2023-05-15T18:36:22.113Z,24
2023-05-15T18:38:52.363Z,33
2023-05-15T18:41:26.858Z,28
2023-05-15T18:43:58.008Z,31
2023-05-15T18:46:29.213Z,32
2023-05-15T18:48:59.179Z,28
2023-05-15T18:51:37.302Z,24
2023-05-15T18:54:07.459Z,26
2023-05-15T18:56:37.679Z,28
2023-05-15T18:59:10.822Z,24
2023-05-15T19:01:41.020Z,25
2023-05-15T19:04:11.689Z,24
2023-05-15T19:06:43.306Z,24
2023-05-15T19:09:16.667Z,24
2023-05-15T19:11:46.544Z,24
2023-05-15T19:14:16.794Z,24
2023-05-15T19:16:46.893Z,28
2023-05-15T19:19:18.204Z,23
2023-05-15T19:21:48.990Z,24
2023-05-15T19:24:19.062Z,28
2023-05-15T19:26:49.254Z,21
2023-05-15T19:29:21.080Z,28
2023-05-15T19:31:51.360Z,24
2023-05-15T19:34:24.040Z,24
2023-05-15T19:36:54.294Z,27
2023-05-15T19:39:25.068Z,24
2023-05-15T19:41:55.349Z,24
2023-05-15T19:44:25.688Z,24
2023-05-15T19:46:56.967Z,24
2023-05-15T19:49:27.681Z,24
2023-05-15T19:51:58.998Z,26
2023-05-15T19:54:29.483Z,24
2023-05-15T19:57:00.020Z,24
2023-05-15T19:59:31.594Z,24
2023-05-15T20:02:02.380Z,24
2023-05-15T20:04:32.758Z,25
2023-05-15T20:07:04.352Z,24
2023-05-15T20:09:34.386Z,24
2023-05-15T20:12:05.279Z,24
2023-05-15T20:14:35.872Z,24
2023-05-15T20:17:06.522Z,24
2023-05-15T20:19:36.881Z,24
2023-05-15T20:22:08.065Z,28
2023-05-15T20:24:38.614Z,24
2023-05-15T20:27:08.705Z,24
2023-05-15T20:29:39.819Z,23
2023-05-15T20:32:16.080Z,24
2023-05-15T20:34:46.305Z,24
2023-05-15T20:37:16.668Z,24
2023-05-15T20:39:47.091Z,24
2023-05-15T20:42:17.648Z,24
2023-05-15T20:44:48.801Z,22
2023-05-15T20:47:19.435Z,20
2023-05-15T20:49:49.795Z,23
2023-05-15T20:52:19.837Z,20
2023-05-15T20:54:50.751Z,20
2023-05-15T20:57:21.048Z,20
2023-05-15T20:59:51.512Z,23
2023-05-15T21:02:21.837Z,20
2023-05-15T21:04:53.358Z,20
2023-05-15T21:07:23.709Z,23
2023-05-15T21:09:53.967Z,20
2023-05-15T21:12:24.255Z,24
2023-05-15T21:14:54.809Z,20
2023-05-15T21:17:25.692Z,28
2023-05-15T21:19:56.451Z,24
2023-05-15T21:22:31.374Z,20
2023-05-15T21:25:01.748Z,24
2023-05-15T21:27:32.391Z,23
2023-05-15T21:30:02.997Z,21
2023-05-15T21:32:33.688Z,20
2023-05-15T21:35:04.156Z,24
2023-05-15T21:37:35.537Z,22
2023-05-15T21:40:06.581Z,24
2023-05-15T21:42:36.807Z,24
2023-05-15T21:45:12.170Z,23
2023-05-15T21:47:43.029Z,22
2023-05-15T21:50:13.340Z,21
2023-05-15T21:52:43.817Z,24
2023-05-15T21:55:14.422Z,20
2023-05-15T21:57:45.209Z,21
2023-05-15T22:00:15.817Z,24
2023-05-15T22:02:47.016Z,20
2023-05-15T22:05:18.539Z,20
2023-05-15T22:07:48.945Z,22
2023-05-15T22:10:20.140Z,23
2023-05-15T22:12:50.554Z,20
2023-05-15T22:15:22.077Z,20
2023-05-15T22:17:54.098Z,24
2023-05-15T22:20:24.842Z,20
2023-05-15T22:22:56.198Z,20
2023-05-15T22:25:26.712Z,20
2023-05-15T22:28:06.291Z,20
2023-05-15T22:30:36.224Z,20
2023-05-15T22:33:09.554Z,23
2023-05-15T22:35:39.148Z,20
2023-05-15T22:38:09.395Z,20
2023-05-15T22:40:40.313Z,20
2023-05-15T22:43:10.572Z,20
2023-05-15T22:45:45.452Z,22
2023-05-15T22:48:16.513Z,20
2023-05-15T22:50:58.627Z,20
2023-05-15T22:53:30.779Z,20
2023-05-15T22:56:12.822Z,20
2023-05-15T22:58:43.677Z,22
2023-05-15T23:01:15.297Z,20
2023-05-15T23:03:45.505Z,20
2023-05-15T23:06:14.911Z,20
2023-05-15T23:08:45.945Z,21
2023-05-15T23:11:16.746Z,20
2023-05-15T23:13:47.743Z,20
2023-05-15T23:16:26.496Z,20
2023-05-15T23:18:57.649Z,20
2023-05-15T23:21:28.352Z,20
2023-05-15T23:23:59.028Z,20
2023-05-15T23:26:30.376Z,20
2023-05-15T23:29:00.939Z,19
2023-05-15T23:31:31.801Z,20
2023-05-15T23:34:02.352Z,20
2023-05-15T23:36:33.432Z,20
2023-05-15T23:39:04.013Z,20
2023-05-15T23:41:34.379Z,23
2023-05-15T23:44:05.424Z,21
2023-05-15T23:46:36.544Z,20
2023-05-15T23:49:08.030Z,23
2023-05-15T23:51:39.167Z,20
2023-05-15T23:54:09.883Z,20
2023-05-15T23:56:40.827Z,20
2023-05-15T23:59:11.934Z,20
